Time;durP1;ratioP1;P1;durP2;ratioP2;P2;SDS_P1;SDS_P2;PMS_P1;PMS_P2;Temp;Humidity;BMP_temperature;BMP_pressure;BME280_temperature;BME280_humidity;BME280_pressure;Samples;Min_cycle;Max_cycle;Signal;HPM_P1;HPM_P2
2023/03/12 00:02:07;;;;;;;7.05;4.65;;;0.60;99.90;;;;;;5045373;28;20200;-62
2023/03/12 00:04:34;;;;;;;5.78;4.78;;;0.60;99.90;;;;;;5047990;28;20040;-61
2023/03/12 00:07:01;;;;;;;7.45;4.68;;;0.60;99.90;;;;;;5048627;28;20475;-62
2023/03/12 00:09:27;;;;;;;7.20;4.18;;;0.60;99.90;;;;;;5048089;28;20589;-61
2023/03/12 00:11:52;;;;;;;4.90;4.03;;;0.60;99.90;;;;;;5048928;28;20029;-61
2023/03/12 00:14:18;;;;;;;5.30;4.30;;;0.60;99.90;;;;;;5048715;28;20099;-63
2023/03/12 00:16:44;;;;;;;5.97;4.55;;;0.60;99.90;;;;;;5047943;28;20025;-62
2023/03/12 00:19:11;;;;;;;6.93;4.10;;;0.60;99.90;;;;;;5048038;28;20296;-61
2023/03/12 00:21:37;;;;;;;6.53;4.97;;;0.60;99.90;;;;;;5047149;28;20048;-62
2023/03/12 00:24:04;;;;;;;6.32;4.40;;;0.60;99.90;;;;;;5050479;28;20056;-62
2023/03/12 00:26:30;;;;;;;6.38;4.65;;;0.70;99.90;;;;;;5049712;28;20033;-62
2023/03/12 00:28:56;;;;;;;8.85;5.22;;;0.60;99.90;;;;;;5043522;28;20083;-63
2023/03/12 00:31:28;;;;;;;7.20;4.55;;;0.60;99.90;;;;;;5049374;28;20371;-63
2023/03/12 00:33:54;;;;;;;7.45;4.68;;;0.60;99.90;;;;;;5052903;28;20024;-62
2023/03/12 00:36:23;;;;;;;5.65;5.10;;;0.60;99.90;;;;;;5052299;28;20029;-60
2023/03/12 00:38:50;;;;;;;7.85;4.85;;;0.70;99.90;;;;;;5051793;28;20036;-61
2023/03/12 00:41:18;;;;;;;5.68;4.72;;;0.70;99.90;;;;;;5053212;28;20107;-63
2023/03/12 00:43:44;;;;;;;8.77;5.88;;;0.60;99.90;;;;;;5052768;28;20033;-61
2023/03/12 00:46:09;;;;;;;7.78;5.03;;;0.60;99.90;;;;;;5052519;28;20029;-62
2023/03/12 00:48:35;;;;;;;7.35;5.53;;;0.60;99.90;;;;;;5050917;28;20482;-61
2023/03/12 00:51:00;;;;;;;8.27;5.53;;;0.60;99.90;;;;;;5048580;28;20040;-60
2023/03/12 00:53:26;;;;;;;8.07;5.32;;;0.60;99.90;;;;;;5052182;28;20060;-62
2023/03/12 00:55:51;;;;;;;7.78;5.18;;;0.60;99.90;;;;;;5052280;28;20395;-62
2023/03/12 00:58:17;;;;;;;9.80;5.90;;;0.60;99.90;;;;;;5050697;28;20112;-62
2023/03/12 01:00:43;;;;;;;7.28;6.22;;;0.60;99.90;;;;;;5052656;28;20025;-60
2023/03/12 01:03:08;;;;;;;7.72;6.10;;;0.60;99.90;;;;;;5051147;28;20037;-62
2023/03/12 01:05:36;;;;;;;9.38;6.93;;;0.60;99.90;;;;;;5052162;28;20036;-61
2023/03/12 01:08:03;;;;;;;7.28;6.22;;;0.50;99.90;;;;;;5049320;28;20051;-62
2023/03/12 01:10:29;;;;;;;10.15;6.47;;;0.50;99.90;;;;;;5051635;28;20445;-61
2023/03/12 01:12:55;;;;;;;9.15;6.38;;;0.50;99.90;;;;;;5049662;28;20036;-62
2023/03/12 01:15:21;;;;;;;11.85;7.10;;;0.60;99.90;;;;;;5052779;28;20583;-62
2023/03/12 01:17:47;;;;;;;12.05;6.53;;;0.50;99.90;;;;;;5051625;28;20079;-59
2023/03/12 01:20:13;;;;;;;15.98;7.30;;;0.50;99.90;;;;;;5051569;28;20548;-61
2023/03/12 01:22:39;;;;;;;11.43;7.63;;;0.50;99.90;;;;;;5045350;28;20548;-62
2023/03/12 01:25:05;;;;;;;9.55;7.03;;;0.50;99.90;;;;;;5051944;28;20021;-62
2023/03/12 01:27:30;;;;;;;8.40;6.65;;;0.50;99.90;;;;;;5050568;28;20095;-62
2023/03/12 01:29:56;;;;;;;12.88;7.13;;;0.50;99.90;;;;;;5051654;28;20338;-62
2023/03/12 01:32:22;;;;;;;14.68;7.68;;;0.50;99.90;;;;;;5043757;28;20108;-62
2023/03/12 01:34:47;;;;;;;10.85;7.50;;;0.50;99.90;;;;;;5042739;28;20475;-62
2023/03/12 01:37:13;;;;;;;9.30;7.20;;;0.50;99.90;;;;;;5050976;28;20040;-62
2023/03/12 01:39:39;;;;;;;11.55;7.18;;;0.50;99.90;;;;;;5051239;28;20039;-61
2023/03/12 01:42:04;;;;;;;11.05;7.38;;;0.50;99.90;;;;;;5051313;28;20083;-63
2023/03/12 01:44:30;;;;;;;11.27;7.65;;;0.50;99.90;;;;;;5051185;28;20132;-62
2023/03/12 01:46:56;;;;;;;12.55;7.32;;;0.50;99.90;;;;;;5051475;28;20480;-62
2023/03/12 01:49:29;;;;;;;14.63;7.80;;;0.50;99.90;;;;;;5046975;28;20071;-62
2023/03/12 01:52:02;;;;;;;12.48;7.95;;;0.50;99.90;;;;;;5047603;28;20028;-61
2023/03/12 01:55:00;;;;;;;11.18;7.78;;;0.50;99.90;;;;;;5049239;28;20053;-62
2023/03/12 01:57:34;;;;;;;12.93;7.53;;;0.50;99.90;;;;;;5034014;28;20044;-62
2023/03/12 02:00:08;;;;;;;12.48;8.15;;;0.50;99.90;;;;;;5051303;28;20383;-61
2023/03/12 02:02:35;;;;;;;15.73;7.75;;;0.40;99.90;;;;;;5051443;28;20396;-60
2023/03/12 02:05:26;;;;;;;12.23;7.47;;;0.50;99.90;;;;;;5051151;28;20025;-62
2023/03/12 02:07:52;;;;;;;11.75;8.40;;;0.50;99.90;;;;;;5048516;28;20044;-61
2023/03/12 02:10:18;;;;;;;13.95;7.80;;;0.50;99.90;;;;;;5050618;28;20033;-61
2023/03/12 02:12:43;;;;;;;11.73;7.80;;;0.50;99.90;;;;;;5051218;28;20036;-58
2023/03/12 02:15:10;;;;;;;11.35;7.95;;;0.50;99.90;;;;;;5051032;28;20032;-61
2023/03/12 02:17:36;;;;;;;12.93;7.70;;;0.50;99.90;;;;;;5051078;28;20487;-61
2023/03/12 02:20:21;;;;;;;10.45;7.82;;;0.50;99.90;;;;;;5049885;28;20475;-59
2023/03/12 02:22:56;;;;;;;10.23;7.28;;;0.50;99.90;;;;;;5051351;28;20017;-60
2023/03/12 02:25:41;;;;;;;12.00;7.68;;;0.50;99.90;;;;;;5045922;28;20037;-61
2023/03/12 02:28:11;;;;;;;13.10;8.00;;;0.50;99.90;;;;;;5046127;28;20021;-60
2023/03/12 02:30:41;;;;;;;11.73;8.18;;;0.50;99.90;;;;;;5048435;28;20462;-62
2023/03/12 02:33:08;;;;;;;12.13;8.23;;;0.50;99.90;;;;;;5050347;28;20047;-62
2023/03/12 02:35:34;;;;;;;13.88;8.05;;;0.50;99.90;;;;;;5048896;28;20033;-62
2023/03/12 02:38:00;;;;;;;12.50;8.35;;;0.50;99.90;;;;;;5050689;28;20092;-61
2023/03/12 02:40:30;;;;;;;12.88;8.35;;;0.40;99.90;;;;;;5044936;28;20128;-61
2023/03/12 02:42:56;;;;;;;12.45;8.48;;;0.40;99.90;;;;;;5050267;28;20031;-62
2023/03/12 02:45:24;;;;;;;12.43;8.13;;;0.40;99.90;;;;;;5042105;28;20112;-61
2023/03/12 02:47:50;;;;;;;13.20;7.85;;;0.40;99.90;;;;;;5043753;28;20044;-59
2023/03/12 02:50:15;;;;;;;11.15;7.95;;;0.30;99.90;;;;;;5049678;28;20032;-60
2023/03/12 02:52:41;;;;;;;9.40;7.72;;;0.40;99.90;;;;;;5050144;28;20040;-61
2023/03/12 02:55:08;;;;;;;11.75;7.85;;;0.40;99.90;;;;;;5049559;28;20035;-60
2023/03/12 02:57:36;;;;;;;16.40;8.98;;;0.40;99.90;;;;;;5048267;28;20029;-62
2023/03/12 03:00:11;;;;;;;9.48;8.23;;;0.40;99.90;;;;;;5050015;28;20100;-60
2023/03/12 03:02:37;;;;;;;13.63;8.75;;;0.40;99.90;;;;;;5049567;28;20462;-59
2023/03/12 03:05:03;;;;;;;13.27;9.02;;;0.30;99.90;;;;;;5049974;28;20024;-58
2023/03/12 03:07:28;;;;;;;13.13;9.07;;;0.30;99.90;;;;;;5050344;28;20032;-59
2023/03/12 03:09:54;;;;;;;13.25;8.43;;;0.40;99.90;;;;;;5046871;28;20117;-62
2023/03/12 03:12:21;;;;;;;16.50;9.00;;;0.30;99.90;;;;;;5049846;28;20483;-61
2023/03/12 03:14:47;;;;;;;12.73;9.30;;;0.30;99.90;;;;;;5049994;28;20020;-60
2023/03/12 03:17:12;;;;;;;12.45;8.77;;;0.30;99.90;;;;;;5047326;28;20399;-59
2023/03/12 03:19:38;;;;;;;12.10;9.52;;;0.30;99.90;;;;;;5049156;28;20029;-61
2023/03/12 03:22:04;;;;;;;13.98;10.02;;;0.30;99.90;;;;;;5049881;28;20480;-57
2023/03/12 03:24:29;;;;;;;15.32;9.98;;;0.30;99.90;;;;;;5048328;28;20439;-60
2023/03/12 03:26:55;;;;;;;13.43;9.55;;;0.30;99.90;;;;;;5048430;28;20124;-59
2023/03/12 03:29:20;;;;;;;11.75;8.63;;;0.30;99.90;;;;;;5048139;28;20036;-62
2023/03/12 03:31:46;;;;;;;13.77;10.45;;;0.30;99.90;;;;;;5049723;28;20118;-62
2023/03/12 03:34:11;;;;;;;14.80;9.43;;;0.20;99.90;;;;;;5049604;28;20025;-60
2023/03/12 03:36:37;;;;;;;12.75;9.85;;;0.20;99.90;;;;;;5048308;28;20033;-60
2023/03/12 03:39:03;;;;;;;12.00;9.50;;;0.20;99.90;;;;;;5047068;28;20096;-61
2023/03/12 03:41:31;;;;;;;16.15;9.95;;;0.20;99.90;;;;;;5048485;28;20055;-61
2023/03/12 03:43:57;;;;;;;12.90;9.13;;;0.20;99.90;;;;;;5046133;28;20033;-61
2023/03/12 03:46:23;;;;;;;14.07;9.55;;;0.20;99.90;;;;;;5048854;28;20029;-59
2023/03/12 03:48:49;;;;;;;14.63;9.48;;;0.20;99.90;;;;;;5047176;28;20036;-61
2023/03/12 03:51:15;;;;;;;12.48;9.05;;;0.20;99.90;;;;;;5049674;28;20025;-62
2023/03/12 03:53:41;;;;;;;15.15;9.90;;;0.10;99.90;;;;;;5047409;28;20025;-62
2023/03/12 03:56:09;;;;;;;13.05;9.85;;;0.20;99.90;;;;;;5048932;28;20025;-61
2023/03/12 03:58:35;;;;;;;12.00;9.32;;;0.20;99.90;;;;;;5046960;28;20292;-61
2023/03/12 04:01:00;;;;;;;12.40;8.98;;;0.20;99.90;;;;;;5047387;28;20124;-61
2023/03/12 04:03:26;;;;;;;26.20;10.50;;;0.20;99.90;;;;;;5048881;28;20040;-61
2023/03/12 04:05:58;;;;;;;13.43;9.35;;;0.20;99.90;;;;;;5047899;28;20029;-61
2023/03/12 04:08:23;;;;;;;12.80;9.25;;;0.20;99.90;;;;;;5045434;28;20037;-61
2023/03/12 04:10:49;;;;;;;12.38;9.40;;;0.20;99.90;;;;;;5047081;28;20029;-59
2023/03/12 04:13:15;;;;;;;13.80;9.77;;;0.20;99.90;;;;;;5041436;28;20032;-59
2023/03/12 04:15:53;;;;;;;15.93;10.40;;;0.10;99.90;;;;;;5044137;28;20029;-62
2023/03/12 04:18:18;;;;;;;16.15;10.65;;;0.10;99.90;;;;;;5044829;28;20134;-61
2023/03/12 04:20:44;;;;;;;12.68;9.32;;;0.10;99.90;;;;;;5048804;28;20075;-61
2023/03/12 04:23:10;;;;;;;14.02;10.65;;;0.10;99.90;;;;;;5049742;28;20021;-60
2023/03/12 04:25:37;;;;;;;15.48;10.45;;;0.10;99.90;;;;;;5050279;28;20348;-61
2023/03/12 04:28:03;;;;;;;15.38;10.27;;;0.10;99.90;;;;;;5048705;28;20071;-60
2023/03/12 04:30:29;;;;;;;16.38;10.32;;;0.00;99.90;;;;;;5048612;28;20065;-60
2023/03/12 04:32:54;;;;;;;14.93;10.98;;;0.00;99.90;;;;;;5048425;28;20118;-62
2023/03/12 04:35:20;;;;;;;16.48;11.38;;;0.00;99.90;;;;;;5047833;28;20480;-61
2023/03/12 04:37:45;;;;;;;12.85;10.05;;;0.00;99.90;;;;;;5049023;28;20028;-61
2023/03/12 04:40:12;;;;;;;14.20;10.30;;;0.00;99.90;;;;;;5048543;28;20021;-61
2023/03/12 04:42:38;;;;;;;16.13;10.95;;;-0.10;99.90;;;;;;5048988;28;20029;-59
2023/03/12 04:45:05;;;;;;;18.52;12.00;;;-0.10;99.90;;;;;;5048781;28;20458;-60
2023/03/12 04:47:32;;;;;;;12.75;9.82;;;-0.10;99.90;;;;;;5048382;28;20040;-62
2023/03/12 04:49:58;;;;;;;14.32;8.90;;;-0.10;99.90;;;;;;5048398;28;20013;-61
2023/03/12 04:52:25;;;;;;;14.55;10.25;;;-0.20;99.90;;;;;;5048410;28;20033;-59
2023/03/12 04:54:51;;;;;;;13.75;10.38;;;-0.20;99.90;;;;;;5045771;28;20023;-62
2023/03/12 04:57:17;;;;;;;14.27;10.63;;;-0.20;99.90;;;;;;5038945;28;20021;-59
2023/03/12 04:59:43;;;;;;;14.55;10.88;;;-0.20;99.90;;;;;;5048299;28;20398;-61
2023/03/12 05:02:08;;;;;;;12.80;10.23;;;-0.30;99.90;;;;;;5048429;28;20037;-61
2023/03/12 05:04:34;;;;;;;15.88;10.20;;;-0.30;99.90;;;;;;5048207;28;20032;-61
2023/03/12 05:06:59;;;;;;;13.80;9.93;;;-0.30;99.90;;;;;;5048200;28;20032;-61
2023/03/12 05:09:25;;;;;;;11.82;9.70;;;-0.30;99.90;;;;;;5048195;28;20033;-61
2023/03/12 05:11:50;;;;;;;13.80;9.48;;;-0.40;99.90;;;;;;5047912;28;20048;-61
2023/03/12 05:14:16;;;;;;;12.98;8.65;;;-0.40;99.90;;;;;;5048645;28;20028;-60
2023/03/12 05:16:42;;;;;;;13.43;9.50;;;-0.40;99.90;;;;;;5047896;28;20025;-61
2023/03/12 05:19:07;;;;;;;13.63;9.60;;;-0.40;99.90;;;;;;5051976;28;20029;-60
2023/03/12 05:21:33;;;;;;;12.60;9.50;;;-0.40;99.90;;;;;;5052265;28;20098;-60
2023/03/12 05:23:59;;;;;;;10.52;8.93;;;-0.40;99.90;;;;;;5054025;28;20033;-60
2023/03/12 05:26:30;;;;;;;13.27;9.75;;;-0.40;99.90;;;;;;5050926;28;20060;-61
2023/03/12 05:28:57;;;;;;;13.35;9.35;;;-0.40;99.90;;;;;;5045322;28;20116;-62
2023/03/12 05:31:23;;;;;;;13.18;9.15;;;-0.40;99.90;;;;;;5051801;28;20029;-61
2023/03/12 05:33:49;;;;;;;12.55;9.63;;;-0.40;99.90;;;;;;5052039;28;20025;-61
2023/03/12 05:36:15;;;;;;;11.60;8.75;;;-0.40;99.90;;;;;;5055101;28;20307;-60
2023/03/12 05:38:41;;;;;;;9.68;8.02;;;-0.40;99.90;;;;;;5052776;28;20483;-62
2023/03/12 05:41:09;;;;;;;11.23;8.57;;;-0.40;99.90;;;;;;5051851;28;20028;-62
2023/03/12 05:43:34;;;;;;;10.48;8.82;;;-0.40;99.90;;;;;;5051946;28;20391;-62
2023/03/12 05:46:02;;;;;;;12.10;8.57;;;-0.30;99.90;;;;;;5051527;28;20028;-61
2023/03/12 05:48:28;;;;;;;14.07;9.65;;;-0.40;99.90;;;;;;5048599;28;20047;-62
2023/03/12 05:50:54;;;;;;;11.73;8.02;;;-0.40;99.90;;;;;;5051781;28;20025;-61
2023/03/12 05:53:20;;;;;;;9.98;8.38;;;-0.40;99.90;;;;;;5051363;28;20013;-60
2023/03/12 05:55:45;;;;;;;12.20;8.82;;;-0.30;99.90;;;;;;5050536;28;20454;-61
2023/03/12 05:58:11;;;;;;;10.70;8.68;;;-0.30;99.90;;;;;;5051411;28;20021;-62
2023/03/12 06:00:41;;;;;;;12.20;7.68;;;-0.40;99.90;;;;;;5049244;28;20225;-62
2023/03/12 06:03:07;;;;;;;9.43;8.40;;;-0.30;99.90;;;;;;5046180;28;20032;-62
2023/03/12 06:05:35;;;;;;;9.65;7.78;;;-0.30;99.90;;;;;;5051066;28;20021;-60
2023/03/12 06:08:00;;;;;;;8.40;7.35;;;-0.30;99.90;;;;;;5049908;28;20479;-61
2023/03/12 06:10:27;;;;;;;10.35;7.85;;;-0.30;99.90;;;;;;5050362;28;20090;-61
2023/03/12 06:12:52;;;;;;;10.30;7.85;;;-0.30;99.90;;;;;;5051353;28;20506;-59
2023/03/12 06:15:18;;;;;;;9.98;7.53;;;-0.30;99.90;;;;;;5050647;28;20093;-61
2023/03/12 06:17:43;;;;;;;10.30;7.55;;;-0.30;99.90;;;;;;5045081;28;20483;-61
2023/03/12 06:20:10;;;;;;;8.63;7.40;;;-0.20;99.90;;;;;;5050676;28;20028;-61
2023/03/12 06:22:36;;;;;;;12.73;8.02;;;-0.20;99.90;;;;;;5050802;28;20025;-61
2023/03/12 06:25:02;;;;;;;11.50;7.35;;;-0.10;99.90;;;;;;5054426;28;20028;-59
2023/03/12 06:27:28;;;;;;;9.10;7.45;;;-0.10;99.90;;;;;;5050276;28;20476;-59
2023/03/12 06:29:53;;;;;;;8.57;7.18;;;-0.10;99.90;;;;;;5049587;28;20028;-61
2023/03/12 06:32:19;;;;;;;9.55;8.13;;;-0.10;99.90;;;;;;5050883;28;20040;-60
2023/03/12 06:34:45;;;;;;;9.65;7.45;;;-0.10;99.90;;;;;;5050505;28;20039;-61
2023/03/12 06:37:10;;;;;;;10.93;7.30;;;-0.10;99.90;;;;;;5048953;28;20139;-61
2023/03/12 06:39:37;;;;;;;9.88;7.50;;;-0.10;99.90;;;;;;5049813;28;20035;-60
2023/03/12 06:42:03;;;;;;;10.20;7.43;;;-0.10;99.90;;;;;;5050327;28;20056;-61
2023/03/12 06:44:28;;;;;;;8.32;6.28;;;-0.10;99.90;;;;;;5050322;28;20033;-60
2023/03/12 06:46:54;;;;;;;7.68;6.78;;;-0.10;99.90;;;;;;5050045;28;20487;-61
2023/03/12 06:49:20;;;;;;;9.43;8.02;;;0.00;99.90;;;;;;5049891;28;20060;-60
2023/03/12 06:51:46;;;;;;;11.38;8.20;;;0.00;99.90;;;;;;5050139;28;20032;-60
2023/03/12 06:54:11;;;;;;;9.10;7.45;;;0.00;99.90;;;;;;5049607;28;20491;-58
2023/03/12 06:56:37;;;;;;;11.65;8.57;;;0.00;99.90;;;;;;5049121;28;20029;-60
2023/03/12 06:59:03;;;;;;;13.20;8.73;;;0.00;99.90;;;;;;5049805;28;20061;-60
2023/03/12 07:01:29;;;;;;;12.23;8.70;;;0.00;99.90;;;;;;5046570;28;20086;-60
2023/03/12 07:03:54;;;;;;;13.07;9.57;;;0.10;99.90;;;;;;5047963;28;20029;-61
2023/03/12 07:06:22;;;;;;;12.93;9.38;;;0.20;99.90;;;;;;5047605;28;20029;-60
2023/03/12 07:08:48;;;;;;;13.18;9.35;;;0.30;99.90;;;;;;5047927;28;20039;-61
2023/03/12 07:11:14;;;;;;;12.00;9.40;;;0.40;99.90;;;;;;5041879;28;20402;-59
2023/03/12 07:13:40;;;;;;;14.88;10.95;;;0.40;99.90;;;;;;5048507;28;20086;-61
2023/03/12 07:16:06;;;;;;;15.82;11.13;;;0.40;99.90;;;;;;5049574;28;20028;-61
2023/03/12 07:18:32;;;;;;;16.73;10.63;;;0.50;99.90;;;;;;5043960;28;20482;-58
2023/03/12 07:20:58;;;;;;;15.63;11.35;;;0.50;99.90;;;;;;5048345;28;20431;-59
2023/03/12 07:23:24;;;;;;;17.83;10.77;;;0.60;99.90;;;;;;5049817;28;20117;-59
2023/03/12 07:25:50;;;;;;;12.05;9.40;;;0.60;99.90;;;;;;5047807;28;20380;-58
2023/03/12 07:28:16;;;;;;;16.05;11.27;;;0.60;99.90;;;;;;5043648;28;20091;-60
2023/03/12 07:30:41;;;;;;;16.30;10.57;;;0.60;99.90;;;;;;5047949;28;20054;-61
2023/03/12 07:33:11;;;;;;;15.73;10.90;;;0.70;99.90;;;;;;5049449;28;20563;-61
2023/03/12 07:35:38;;;;;;;15.18;10.40;;;0.70;99.90;;;;;;5040477;28;20029;-59
2023/03/12 07:38:04;;;;;;;15.23;10.35;;;0.70;99.90;;;;;;5048542;28;20096;-62
2023/03/12 07:40:30;;;;;;;18.42;10.23;;;0.80;99.90;;;;;;5042797;28;20541;-61
2023/03/12 07:42:56;;;;;;;13.93;10.70;;;0.80;99.90;;;;;;5047899;28;20024;-62
2023/03/12 07:45:22;;;;;;;13.65;10.07;;;0.90;99.90;;;;;;5044472;28;20029;-61
2023/03/12 07:47:49;;;;;;;15.68;10.60;;;1.00;99.90;;;;;;5049046;28;20032;-61
2023/03/12 07:50:16;;;;;;;14.75;10.82;;;1.00;99.90;;;;;;5040586;28;20174;-62
2023/03/12 07:52:41;;;;;;;13.18;10.02;;;1.00;99.90;;;;;;5047957;28;20082;-61
2023/03/12 07:55:08;;;;;;;13.32;10.13;;;1.10;99.90;;;;;;5040852;28;20391;-59
2023/03/12 07:57:34;;;;;;;12.52;9.60;;;1.10;99.90;;;;;;5048067;28;20435;-59
2023/03/12 08:00:00;;;;;;;16.08;10.13;;;1.20;99.90;;;;;;5047160;28;20311;-60
2023/03/12 08:02:25;;;;;;;13.07;9.40;;;1.20;99.90;;;;;;5049442;28;20402;-58
2023/03/12 08:04:51;;;;;;;14.00;9.43;;;1.20;99.90;;;;;;5046418;28;20048;-59
2023/03/12 08:07:17;;;;;;;14.15;9.73;;;1.30;99.90;;;;;;5045225;28;20036;-61
2023/03/12 08:09:42;;;;;;;12.40;9.40;;;1.40;99.90;;;;;;5047226;28;20036;-61
2023/03/12 08:12:08;;;;;;;13.73;9.10;;;1.40;99.90;;;;;;5048173;28;20040;-61
2023/03/12 08:14:34;;;;;;;11.38;8.45;;;1.50;99.90;;;;;;5048488;28;20119;-61
2023/03/12 08:17:00;;;;;;;12.35;9.07;;;1.50;99.90;;;;;;5047375;28;20074;-59
2023/03/12 08:19:27;;;;;;;11.48;9.02;;;1.60;99.90;;;;;;5047151;28;20037;-60
2023/03/12 08:21:52;;;;;;;13.18;8.98;;;1.60;99.90;;;;;;5045788;28;20073;-61
2023/03/12 08:24:20;;;;;;;13.98;8.82;;;1.80;99.90;;;;;;5049039;28;20060;-59
2023/03/12 08:26:45;;;;;;;8.80;7.68;;;1.80;99.90;;;;;;5048876;28;20037;-58
2023/03/12 08:29:11;;;;;;;11.35;8.60;;;2.00;99.90;;;;;;5048686;28;20442;-62
2023/03/12 08:31:37;;;;;;;9.98;8.63;;;2.00;99.90;;;;;;5048660;28;20442;-61
2023/03/12 08:34:03;;;;;;;10.57;8.43;;;2.20;99.90;;;;;;5047955;28;20036;-58
2023/03/12 08:36:28;;;;;;;14.25;8.13;;;2.20;99.90;;;;;;5044733;28;20051;-59
2023/03/12 08:38:54;;;;;;;9.95;7.13;;;2.20;99.90;;;;;;5048104;28;20029;-62
2023/03/12 08:41:19;;;;;;;8.60;6.88;;;2.30;99.90;;;;;;5048710;28;20166;-60
2023/03/12 08:43:45;;;;;;;8.25;6.25;;;2.30;99.90;;;;;;5054545;28;20036;-59
2023/03/12 08:46:11;;;;;;;8.98;6.53;;;2.40;99.90;;;;;;5048578;28;20033;-58
2023/03/12 08:48:37;;;;;;;8.93;5.70;;;2.50;99.90;;;;;;5044254;28;20048;-58
2023/03/12 08:51:04;;;;;;;12.95;6.85;;;2.60;99.90;;;;;;5054189;28;20373;-59
2023/03/12 08:53:33;;;;;;;6.78;5.95;;;2.70;99.90;;;;;;5052631;28;20024;-60
2023/03/12 08:55:58;;;;;;;5.93;5.22;;;2.80;99.90;;;;;;5051131;28;20021;-61
2023/03/12 08:58:24;;;;;;;8.68;5.68;;;2.80;99.90;;;;;;5052442;28;20032;-60
2023/03/12 09:00:51;;;;;;;10.38;5.45;;;2.80;99.90;;;;;;5050778;28;20086;-59
2023/03/12 09:03:17;;;;;;;7.65;5.55;;;2.80;99.90;;;;;;5052740;28;20071;-60
2023/03/12 09:05:44;;;;;;;9.00;5.82;;;2.80;99.90;;;;;;5052278;28;20025;-61
2023/03/12 09:08:10;;;;;;;8.10;6.03;;;2.90;99.90;;;;;;5052353;28;20037;-58
2023/03/12 09:10:37;;;;;;;5.95;5.22;;;2.90;99.90;;;;;;5050540;28;20083;-61
2023/03/12 09:13:03;;;;;;;7.28;4.68;;;2.90;99.90;;;;;;5052639;28;20065;-61
2023/03/12 09:15:29;;;;;;;5.60;4.00;;;2.90;99.90;;;;;;5051725;28;20083;-60
2023/03/12 09:17:55;;;;;;;9.27;4.07;;;3.00;99.90;;;;;;5052457;28;20032;-61
2023/03/12 09:20:22;;;;;;;6.63;4.65;;;3.00;99.90;;;;;;5048536;28;20479;-60
2023/03/12 09:22:48;;;;;;;9.75;4.78;;;3.00;99.90;;;;;;5052233;28;20029;-59
2023/03/12 09:25:14;;;;;;;5.50;4.55;;;3.10;99.90;;;;;;5051448;28;20052;-57
2023/03/12 09:27:42;;;;;;;4.65;3.95;;;3.10;99.90;;;;;;5050670;28;20098;-60
2023/03/12 09:30:11;;;;;;;7.80;4.15;;;3.10;99.90;;;;;;5043620;28;20119;-60
2023/03/12 09:32:37;;;;;;;5.05;4.00;;;3.10;99.90;;;;;;5051408;28;20410;-59
2023/03/12 09:35:03;;;;;;;6.85;3.40;;;3.10;99.90;;;;;;5051871;28;20033;-58
2023/03/12 09:37:31;;;;;;;6.65;4.03;;;3.00;99.90;;;;;;5050856;28;20033;-60
2023/03/12 09:39:56;;;;;;;6.68;4.63;;;3.00;99.90;;;;;;5044402;28;20524;-62
2023/03/12 09:42:44;;;;;;;7.30;4.45;;;3.10;99.90;;;;;;5052235;28;20037;-62
2023/03/12 09:45:17;;;;;;;8.35;4.25;;;3.20;99.90;;;;;;5045809;28;20036;-62
2023/03/12 09:47:49;;;;;;;8.10;3.72;;;3.30;99.90;;;;;;5051374;28;20032;-59
2023/03/12 09:50:27;;;;;;;5.53;3.75;;;3.40;99.90;;;;;;5047088;28;20067;-61
2023/03/12 09:53:14;;;;;;;4.70;3.30;;;3.40;99.90;;;;;;5045997;28;20032;-60
2023/03/12 09:55:46;;;;;;;3.55;2.97;;;3.50;99.90;;;;;;5051612;28;20394;-63
2023/03/12 09:58:38;;;;;;;4.95;3.53;;;3.60;99.90;;;;;;5051194;28;20025;-63
2023/03/12 10:01:36;;;;;;;5.47;3.60;;;3.70;99.90;;;;;;5043197;28;20040;-62
2023/03/12 10:04:28;;;;;;;3.65;3.35;;;3.70;99.90;;;;;;5043684;28;20447;-61
2023/03/12 10:07:15;;;;;;;4.28;3.58;;;3.80;99.90;;;;;;5048769;28;20164;-62
2023/03/12 10:10:00;;;;;;;8.98;4.00;;;3.80;99.90;;;;;;5047327;28;20051;-61
2023/03/12 10:13:01;;;;;;;6.40;3.67;;;3.80;99.90;;;;;;5048615;28;20124;-62
2023/03/12 10:15:51;;;;;;;5.57;3.60;;;3.90;99.90;;;;;;5047565;28;20068;-63
2023/03/12 10:18:41;;;;;;;5.82;4.00;;;4.00;99.90;;;;;;5051896;28;20070;-61
2023/03/12 10:21:20;;;;;;;4.93;3.47;;;4.00;99.90;;;;;;5050222;28;20017;-62
2023/03/12 10:24:06;;;;;;;6.22;3.28;;;4.10;99.90;;;;;;5046941;28;20036;-62
2023/03/12 10:26:49;;;;;;;3.70;3.30;;;4.20;99.90;;;;;;5052156;28;20024;-61
2023/03/12 10:29:19;;;;;;;4.65;3.22;;;4.20;99.90;;;;;;5050463;28;20060;-61
2023/03/12 10:31:48;;;;;;;11.75;3.65;;;4.20;99.90;;;;;;5051217;28;20151;-60
2023/03/12 10:34:24;;;;;;;6.00;3.20;;;4.20;99.90;;;;;;5050739;28;20021;-59
2023/03/12 10:36:50;;;;;;;8.18;3.03;;;4.30;99.90;;;;;;5050686;28;20021;-63
2023/03/12 10:39:18;;;;;;;3.35;3.05;;;4.30;99.90;;;;;;5050210;28;20271;-61
2023/03/12 10:41:46;;;;;;;4.30;3.35;;;4.30;99.90;;;;;;5050736;28;20035;-61
2023/03/12 10:44:21;;;;;;;5.50;3.60;;;4.30;99.90;;;;;;5050311;28;20025;-58
2023/03/12 10:47:21;;;;;;;5.72;2.95;;;4.40;99.90;;;;;;5050253;28;20028;-61
2023/03/12 10:49:49;;;;;;;3.45;2.70;;;4.30;99.90;;;;;;5046969;28;20618;-61
2023/03/12 10:52:18;;;;;;;7.32;2.88;;;4.30;99.90;;;;;;5050377;28;20048;-63
2023/03/12 10:54:46;;;;;;;5.25;3.08;;;4.30;99.90;;;;;;5041923;28;20064;-63
2023/03/12 10:57:14;;;;;;;4.00;3.60;;;4.30;99.90;;;;;;5050338;28;20017;-62
2023/03/12 10:59:43;;;;;;;3.97;3.00;;;4.20;99.90;;;;;;5041270;28;20120;-60
2023/03/12 11:02:50;;;;;;;6.78;3.05;;;4.20;99.90;;;;;;5050048;28;20076;-62
2023/03/12 11:05:25;;;;;;;6.95;3.10;;;4.20;99.90;;;;;;5036900;28;20045;-63
2023/03/12 11:07:51;;;;;;;4.75;3.38;;;4.20;99.90;;;;;;5041800;28;20044;-60
2023/03/12 11:10:46;;;;;;;5.15;3.10;;;4.20;99.90;;;;;;5048257;28;20029;-63
2023/03/12 11:13:32;;;;;;;6.15;3.60;;;4.20;99.90;;;;;;5044481;28;20102;-59
2023/03/12 11:16:14;;;;;;;6.18;3.35;;;4.20;99.90;;;;;;5048044;28;20422;-59
2023/03/12 11:18:56;;;;;;;8.70;4.13;;;4.20;99.90;;;;;;5049417;28;20035;-64
2023/03/12 11:21:22;;;;;;;7.20;3.45;;;4.20;99.90;;;;;;5048692;28;20087;-60
2023/03/12 11:23:56;;;;;;;8.85;4.78;;;4.10;99.90;;;;;;5041536;28;20107;-61
2023/03/12 11:26:32;;;;;;;6.80;3.50;;;4.10;99.90;;;;;;5050382;28;20159;-60
2023/03/12 11:29:03;;;;;;;4.93;3.83;;;4.10;99.90;;;;;;5044919;28;20029;-59
2023/03/12 11:31:35;;;;;;;7.18;3.85;;;4.10;99.90;;;;;;5044307;28;20537;-61
2023/03/12 11:34:09;;;;;;;3.88;3.47;;;4.10;99.90;;;;;;5049814;28;20087;-61
2023/03/12 11:36:46;;;;;;;7.70;3.97;;;4.10;99.90;;;;;;5047457;28;20217;-60
2023/03/12 11:39:19;;;;;;;5.65;3.78;;;4.00;99.90;;;;;;5049415;28;20571;-60
2023/03/12 11:42:10;;;;;;;5.63;3.63;;;4.00;99.90;;;;;;5048705;28;20142;-62
2023/03/12 11:44:53;;;;;;;5.70;3.58;;;4.00;99.90;;;;;;5049594;28;20043;-62
2023/03/12 11:47:44;;;;;;;5.18;3.22;;;4.10;99.90;;;;;;5048964;28;20029;-62
2023/03/12 11:50:44;;;;;;;5.13;3.92;;;4.00;99.90;;;;;;5044740;28;20066;-61
2023/03/12 11:53:24;;;;;;;6.15;3.22;;;4.00;99.90;;;;;;5049655;28;20022;-62
2023/03/12 11:56:04;;;;;;;4.30;3.03;;;4.00;99.90;;;;;;5040816;28;20507;-61
2023/03/12 11:58:40;;;;;;;6.40;3.50;;;4.00;99.90;;;;;;5049478;28;20029;-62
2023/03/12 12:01:32;;;;;;;6.13;3.30;;;4.00;99.90;;;;;;5043957;28;20404;-61
2023/03/12 12:04:12;;;;;;;4.70;3.30;;;4.00;99.90;;;;;;5048214;28;20033;-63
2023/03/12 12:06:56;;;;;;;6.78;3.22;;;4.00;99.90;;;;;;5047852;28;20033;-61
2023/03/12 12:09:21;;;;;;;5.97;3.40;;;4.10;99.90;;;;;;5047436;28;20082;-63
2023/03/12 12:11:59;;;;;;;6.28;4.05;;;4.10;99.90;;;;;;5047908;28;20029;-62
2023/03/12 12:14:30;;;;;;;3.67;3.38;;;4.10;99.90;;;;;;5046316;28;20104;-62
2023/03/12 12:17:11;;;;;;;4.38;3.45;;;4.10;99.90;;;;;;5049390;28;20100;-62
2023/03/12 12:19:41;;;;;;;8.65;6.30;;;4.10;99.90;;;;;;5046874;28;20036;-60
2023/03/12 12:22:32;;;;;;;8.80;7.28;;;4.10;99.90;;;;;;5049258;28;20044;-61
2023/03/12 12:25:26;;;;;;;5.25;3.72;;;4.00;99.90;;;;;;5048617;28;20021;-62
2023/03/12 12:27:56;;;;;;;4.93;3.92;;;4.10;99.90;;;;;;5047022;28;20021;-59
2023/03/12 12:30:38;;;;;;;6.63;3.55;;;4.00;99.90;;;;;;5047321;28;20033;-61
2023/03/12 12:33:15;;;;;;;7.68;5.22;;;4.00;99.90;;;;;;5048104;28;20036;-60
2023/03/12 12:35:42;;;;;;;5.95;3.50;;;4.00;99.90;;;;;;5048242;28;20028;-61
2023/03/12 12:38:08;;;;;;;7.35;3.30;;;4.00;99.90;;;;;;5047491;28;20408;-59
2023/03/12 12:40:38;;;;;;;5.45;2.88;;;3.90;99.90;;;;;;5048615;28;20036;-61
2023/03/12 12:43:23;;;;;;;6.80;3.53;;;4.00;99.90;;;;;;5047363;28;20500;-59
2023/03/12 12:45:51;;;;;;;5.25;2.90;;;4.00;99.90;;;;;;5041333;28;20471;-60
2023/03/12 12:48:23;;;;;;;4.00;3.05;;;4.00;99.90;;;;;;5047992;28;20037;-59
2023/03/12 12:50:51;;;;;;;4.53;2.28;;;3.90;99.90;;;;;;5040325;28;20402;-62
2023/03/12 12:53:25;;;;;;;4.20;2.47;;;4.00;99.90;;;;;;5047354;28;20033;-59
2023/03/12 12:56:05;;;;;;;3.97;2.85;;;3.90;99.90;;;;;;5040566;28;20029;-60
2023/03/12 12:59:00;;;;;;;5.18;2.42;;;3.90;99.90;;;;;;5048531;28;20048;-60
2023/03/12 13:01:26;;;;;;;4.18;2.30;;;4.00;99.90;;;;;;5048578;28;20029;-61